STV1 EGBB-EDGS
Flight info
| Callsign | STV1 |
|---|---|
| Flight time | 1h 11m |
| Altitude | 41000 |
| Route | DTY L10 BPK Q295 BRAIN P44 CLN/N0415F230 L608 SUMUM/N0393F190 L608 SASKI L179 SONDI |
| Aircraft | CL60/M-SADE3FGHIJ3J4J7P2RWXY/HB1D1 |
Departure
| Time | 2026-05-05 11:14 |
|---|---|
| Airport | Birmingham Airport (EGBB) |
Arrival
| Time | 2026-05-05 12:26 |
|---|---|
| Airport | Siegerland Airport (EDGS) |
| Time | Latitude | Longitude | Altitude | Speed | Heading |
|---|---|---|---|---|---|
| 2026-05-05 10:22 | 52.45053 | -1.75084 | 339 ft | 0 kts | 235° |
| 2026-05-05 11:11 | 52.45052 | -1.75085 | 339 ft | 1 kts | 235° |
| 2026-05-05 11:11 | 52.45065 | -1.75129 | 339 ft | 8 kts | 352° |
| 2026-05-05 11:11 | 52.45137 | -1.75093 | 335 ft | 10 kts | 35° |
| 2026-05-05 11:11 | 52.45183 | -1.74981 | 335 ft | 13 kts | 69° |
| 2026-05-05 11:12 | 52.45122 | -1.74858 | 336 ft | 15 kts | 146° |
| 2026-05-05 11:12 | 52.45029 | -1.74755 | 339 ft | 16 kts | 147° |
| 2026-05-05 11:12 | 52.44988 | -1.74645 | 339 ft | 6 kts | 100° |
| 2026-05-05 11:12 | 52.44980 | -1.74578 | 338 ft | 8 kts | 102° |
| 2026-05-05 11:13 | 52.44976 | -1.74449 | 335 ft | 12 kts | 89° |
| 2026-05-05 11:13 | 52.45015 | -1.74389 | 331 ft | 7 kts | 326° |
| 2026-05-05 11:13 | 52.45019 | -1.74394 | 331 ft | 0 kts | 324° |
| 2026-05-05 11:14 | 52.45189 | -1.74584 | 330 ft | 70 kts | 327° |
| 2026-05-05 11:14 | 52.45829 | -1.75299 | 328 ft | 144 kts | 325° |
| 2026-05-05 11:14 | 52.46688 | -1.76314 | 864 ft | 159 kts | 325° |
| 2026-05-05 11:14 | 52.47536 | -1.77372 | 1801 ft | 156 kts | 325° |
| 2026-05-05 11:15 | 52.48422 | -1.78370 | 2475 ft | 154 kts | 329° |
| 2026-05-05 11:15 | 52.49342 | -1.79359 | 3123 ft | 163 kts | 329° |
| 2026-05-05 11:15 | 52.50417 | -1.79821 | 3819 ft | 170 kts | 5° |
| 2026-05-05 11:15 | 52.51667 | -1.79298 | 4157 ft | 201 kts | 22° |
| 2026-05-05 11:16 | 52.52868 | -1.77961 | 4827 ft | 221 kts | 44° |
| 2026-05-05 11:16 | 52.53702 | -1.75788 | 5615 ft | 237 kts | 69° |
| 2026-05-05 11:16 | 52.53803 | -1.73099 | 5948 ft | 245 kts | 98° |
| 2026-05-05 11:16 | 52.53444 | -1.70348 | 6005 ft | 244 kts | 100° |
| 2026-05-05 11:17 | 52.52963 | -1.67671 | 6000 ft | 244 kts | 115° |
| 2026-05-05 11:17 | 52.51912 | -1.65460 | 6004 ft | 260 kts | 134° |
| 2026-05-05 11:17 | 52.50572 | -1.63296 | 5992 ft | 273 kts | 134° |
| 2026-05-05 11:17 | 52.49208 | -1.61083 | 6041 ft | 285 kts | 134° |
| 2026-05-05 11:18 | 52.47787 | -1.58779 | 6879 ft | 292 kts | 134° |
| 2026-05-05 11:18 | 52.46357 | -1.56463 | 8033 ft | 288 kts | 134° |
| 2026-05-05 11:18 | 52.44957 | -1.54187 | 9005 ft | 290 kts | 134° |
| 2026-05-05 11:18 | 52.43535 | -1.51875 | 9916 ft | 294 kts | 134° |
| 2026-05-05 11:19 | 52.42075 | -1.49504 | 10824 ft | 298 kts | 134° |
| 2026-05-05 11:19 | 52.40612 | -1.47131 | 11693 ft | 302 kts | 134° |
| 2026-05-05 11:19 | 52.39062 | -1.44618 | 11948 ft | 329 kts | 134° |
| 2026-05-05 11:19 | 52.37400 | -1.41798 | 12107 ft | 353 kts | 128° |
| 2026-05-05 11:20 | 52.36199 | -1.38244 | 12556 ft | 362 kts | 107° |
| 2026-05-05 11:20 | 52.35837 | -1.34210 | 13170 ft | 364 kts | 90° |
| 2026-05-05 11:20 | 52.35857 | -1.30106 | 13789 ft | 368 kts | 89° |
| 2026-05-05 11:20 | 52.35876 | -1.25898 | 14434 ft | 371 kts | 89° |
| 2026-05-05 11:21 | 52.35891 | -1.21701 | 15027 ft | 375 kts | 89° |
| 2026-05-05 11:21 | 52.35905 | -1.17400 | 15606 ft | 379 kts | 89° |
| 2026-05-05 11:21 | 52.35916 | -1.13096 | 16204 ft | 382 kts | 90° |
| 2026-05-05 11:21 | 52.35927 | -1.08726 | 16780 ft | 385 kts | 90° |
| 2026-05-05 11:22 | 52.35935 | -1.04335 | 17283 ft | 390 kts | 90° |
| 2026-05-05 11:22 | 52.35942 | -0.99944 | 17830 ft | 392 kts | 90° |
| 2026-05-05 11:22 | 52.35947 | -0.95457 | 18349 ft | 395 kts | 90° |
| 2026-05-05 11:22 | 52.35945 | -0.91008 | 18834 ft | 398 kts | 91° |
| 2026-05-05 11:23 | 52.35749 | -0.86443 | 19272 ft | 403 kts | 96° |
| 2026-05-05 11:23 | 52.35475 | -0.81885 | 19754 ft | 405 kts | 96° |
| 2026-05-05 11:23 | 52.35202 | -0.77295 | 20290 ft | 406 kts | 96° |
| 2026-05-05 11:23 | 52.34928 | -0.72702 | 20817 ft | 407 kts | 96° |
| 2026-05-05 11:24 | 52.34654 | -0.68124 | 21193 ft | 411 kts | 97° |
| 2026-05-05 11:24 | 52.34372 | -0.63457 | 21546 ft | 416 kts | 97° |
| 2026-05-05 11:24 | 52.34087 | -0.58736 | 22003 ft | 417 kts | 97° |
| 2026-05-05 11:24 | 52.33801 | -0.54041 | 22414 ft | 419 kts | 97° |
| 2026-05-05 11:25 | 52.33513 | -0.49344 | 22796 ft | 421 kts | 97° |
| 2026-05-05 11:25 | 52.33200 | -0.44250 | 23196 ft | 424 kts | 97° |
| 2026-05-05 11:25 | 52.32902 | -0.39435 | 23519 ft | 427 kts | 97° |
| 2026-05-05 11:25 | 52.32601 | -0.34612 | 23904 ft | 435 kts | 98° |
| 2026-05-05 11:26 | 52.32288 | -0.29628 | 23997 ft | 438 kts | 98° |
| 2026-05-05 11:26 | 52.31981 | -0.24740 | 23960 ft | 433 kts | 98° |
| 2026-05-05 11:26 | 52.31665 | -0.19776 | 24190 ft | 444 kts | 98° |
| 2026-05-05 11:26 | 52.31344 | -0.14749 | 25034 ft | 444 kts | 98° |
| 2026-05-05 11:27 | 52.31022 | -0.09727 | 25925 ft | 442 kts | 98° |
| 2026-05-05 11:27 | 52.30700 | -0.04742 | 26662 ft | 442 kts | 98° |
| 2026-05-05 11:27 | 52.30378 | 0.00206 | 27181 ft | 447 kts | 98° |
| 2026-05-05 11:27 | 52.30046 | 0.05271 | 27697 ft | 451 kts | 98° |
| 2026-05-05 11:28 | 52.29710 | 0.10372 | 28235 ft | 454 kts | 98° |
| 2026-05-05 11:28 | 52.29369 | 0.15502 | 28708 ft | 458 kts | 98° |
| 2026-05-05 11:28 | 52.29024 | 0.20665 | 29146 ft | 461 kts | 98° |
| 2026-05-05 11:28 | 52.28671 | 0.25912 | 29597 ft | 463 kts | 98° |
| 2026-05-05 11:29 | 52.28319 | 0.31119 | 30000 ft | 466 kts | 98° |
| 2026-05-05 11:29 | 52.27961 | 0.36365 | 30340 ft | 469 kts | 98° |
| 2026-05-05 11:29 | 52.27599 | 0.41645 | 30678 ft | 472 kts | 98° |
| 2026-05-05 11:29 | 52.27236 | 0.46908 | 31051 ft | 472 kts | 98° |
| 2026-05-05 11:30 | 52.26867 | 0.52217 | 31484 ft | 470 kts | 98° |
| 2026-05-05 11:30 | 52.26501 | 0.57459 | 31933 ft | 468 kts | 98° |
| 2026-05-05 11:30 | 52.26133 | 0.62702 | 32356 ft | 466 kts | 98° |
| 2026-05-05 11:30 | 52.25761 | 0.67955 | 32778 ft | 464 kts | 99° |
| 2026-05-05 11:31 | 52.25394 | 0.73098 | 33193 ft | 463 kts | 99° |
| 2026-05-05 11:31 | 52.25017 | 0.78348 | 33553 ft | 462 kts | 99° |
| 2026-05-05 11:31 | 52.24643 | 0.83531 | 33897 ft | 461 kts | 99° |
| 2026-05-05 11:31 | 52.24271 | 0.88649 | 34236 ft | 461 kts | 99° |
| 2026-05-05 11:32 | 52.23893 | 0.93830 | 34546 ft | 461 kts | 99° |
| 2026-05-05 11:32 | 52.23617 | 0.99048 | 34888 ft | 462 kts | 93° |
| 2026-05-05 11:32 | 52.23742 | 1.04307 | 35169 ft | 463 kts | 86° |
| 2026-05-05 11:32 | 52.24044 | 1.09458 | 35354 ft | 463 kts | 86° |
| 2026-05-05 11:33 | 52.24349 | 1.14691 | 35526 ft | 464 kts | 86° |
| 2026-05-05 11:33 | 52.24651 | 1.19934 | 35703 ft | 464 kts | 86° |
| 2026-05-05 11:33 | 52.24948 | 1.25147 | 35851 ft | 465 kts | 86° |
| 2026-05-05 11:33 | 52.25246 | 1.30417 | 36010 ft | 465 kts | 86° |
| 2026-05-05 11:34 | 52.25540 | 1.35660 | 36190 ft | 465 kts | 86° |
| 2026-05-05 11:34 | 52.25829 | 1.40845 | 36343 ft | 465 kts | 86° |
| 2026-05-05 11:34 | 52.26118 | 1.46095 | 36508 ft | 466 kts | 86° |
| 2026-05-05 11:34 | 52.26406 | 1.51363 | 36679 ft | 467 kts | 86° |
| 2026-05-05 11:35 | 52.26692 | 1.56649 | 36898 ft | 467 kts | 86° |
| 2026-05-05 11:35 | 52.26972 | 1.61864 | 37144 ft | 466 kts | 86° |
| 2026-05-05 11:35 | 52.27251 | 1.67098 | 37376 ft | 466 kts | 86° |
| 2026-05-05 11:35 | 52.27526 | 1.72324 | 37567 ft | 466 kts | 86° |
| 2026-05-05 11:36 | 52.27801 | 1.77568 | 37751 ft | 466 kts | 86° |
| 2026-05-05 11:36 | 52.28074 | 1.82833 | 37926 ft | 466 kts | 86° |
| 2026-05-05 11:36 | 52.28346 | 1.88132 | 38102 ft | 466 kts | 86° |
| 2026-05-05 11:36 | 52.28612 | 1.93345 | 38264 ft | 466 kts | 86° |
| 2026-05-05 11:37 | 52.28876 | 1.98581 | 38399 ft | 467 kts | 86° |
| 2026-05-05 11:37 | 52.29141 | 2.03876 | 38550 ft | 467 kts | 86° |
| 2026-05-05 11:37 | 52.29401 | 2.09111 | 38682 ft | 468 kts | 86° |
| 2026-05-05 11:37 | 52.29663 | 2.14434 | 38809 ft | 468 kts | 86° |
| 2026-05-05 11:38 | 52.29919 | 2.19714 | 38938 ft | 468 kts | 86° |
| 2026-05-05 11:38 | 52.30173 | 2.24972 | 39060 ft | 469 kts | 86° |
| 2026-05-05 11:38 | 52.30425 | 2.30247 | 39199 ft | 468 kts | 86° |
| 2026-05-05 11:38 | 52.30673 | 2.35485 | 39337 ft | 468 kts | 86° |
| 2026-05-05 11:39 | 52.30923 | 2.40808 | 39432 ft | 468 kts | 86° |
| 2026-05-05 11:39 | 52.31411 | 2.51386 | 39609 ft | 470 kts | 86° |
| 2026-05-05 11:40 | 52.31949 | 2.63259 | 39802 ft | 470 kts | 86° |
| 2026-05-05 11:40 | 52.32423 | 2.73983 | 39964 ft | 471 kts | 87° |
| 2026-05-05 11:40 | 52.32653 | 2.79258 | 40070 ft | 470 kts | 87° |
| 2026-05-05 11:41 | 52.32885 | 2.84618 | 40164 ft | 470 kts | 87° |
| 2026-05-05 11:41 | 52.33334 | 2.95211 | 40307 ft | 470 kts | 87° |
| 2026-05-05 11:42 | 52.33776 | 3.05831 | 40449 ft | 470 kts | 87° |
| 2026-05-05 11:42 | 52.34209 | 3.16500 | 40567 ft | 471 kts | 87° |
| 2026-05-05 11:43 | 52.34633 | 3.27142 | 40681 ft | 471 kts | 87° |
| 2026-05-05 11:43 | 52.35046 | 3.37780 | 40776 ft | 472 kts | 87° |
| 2026-05-05 11:44 | 52.35451 | 3.48475 | 40863 ft | 473 kts | 87° |
| 2026-05-05 11:44 | 52.35847 | 3.59168 | 40949 ft | 473 kts | 87° |
| 2026-05-05 11:45 | 52.36234 | 3.69884 | 40936 ft | 475 kts | 88° |
| 2026-05-05 11:45 | 52.36613 | 3.80646 | 40963 ft | 475 kts | 88° |
| 2026-05-05 11:46 | 52.36707 | 3.91417 | 40969 ft | 473 kts | 94° |
| 2026-05-05 11:46 | 52.36455 | 4.02157 | 40968 ft | 473 kts | 94° |
| 2026-05-05 11:47 | 52.36202 | 4.12817 | 40963 ft | 474 kts | 94° |
| 2026-05-05 11:47 | 52.35938 | 4.23557 | 40938 ft | 475 kts | 93° |
| 2026-05-05 11:48 | 52.35528 | 4.39647 | 40938 ft | 475 kts | 93° |
| 2026-05-05 11:48 | 52.35243 | 4.50369 | 40938 ft | 474 kts | 94° |
| 2026-05-05 11:49 | 52.34948 | 4.61106 | 40947 ft | 475 kts | 94° |
| 2026-05-05 11:49 | 52.34639 | 4.71866 | 40943 ft | 474 kts | 94° |
| 2026-05-05 11:50 | 52.34321 | 4.82605 | 40938 ft | 474 kts | 94° |
| 2026-05-05 11:50 | 52.33997 | 4.93247 | 40947 ft | 474 kts | 94° |
| 2026-05-05 11:51 | 52.33585 | 5.03955 | 40950 ft | 473 kts | 99° |
| 2026-05-05 11:51 | 52.31974 | 5.14279 | 40939 ft | 469 kts | 114° |
| 2026-05-05 11:52 | 52.29272 | 5.23928 | 40916 ft | 469 kts | 117° |
| 2026-05-05 11:52 | 52.26527 | 5.33475 | 40933 ft | 468 kts | 117° |
| 2026-05-05 11:53 | 52.23752 | 5.43083 | 40914 ft | 469 kts | 117° |
| 2026-05-05 11:53 | 52.20972 | 5.52668 | 40913 ft | 469 kts | 117° |
| 2026-05-05 11:54 | 52.18195 | 5.62202 | 40915 ft | 468 kts | 117° |
| 2026-05-05 11:54 | 52.15413 | 5.71718 | 40948 ft | 468 kts | 118° |
| 2026-05-05 11:55 | 52.12607 | 5.81278 | 40947 ft | 469 kts | 118° |
| 2026-05-05 11:55 | 52.10140 | 5.89667 | 40944 ft | 469 kts | 118° |
| 2026-05-05 11:56 | 52.07780 | 5.97664 | 40940 ft | 469 kts | 118° |
| 2026-05-05 11:56 | 52.04956 | 6.07197 | 40935 ft | 469 kts | 118° |
| 2026-05-05 11:57 | 52.02125 | 6.16713 | 40910 ft | 469 kts | 118° |
| 2026-05-05 11:57 | 51.99285 | 6.26195 | 40887 ft | 469 kts | 118° |
| 2026-05-05 11:58 | 51.96423 | 6.35715 | 40910 ft | 468 kts | 118° |
| 2026-05-05 11:58 | 51.93479 | 6.45119 | 40827 ft | 469 kts | 123° |
| 2026-05-05 11:59 | 51.91649 | 6.49555 | 40354 ft | 476 kts | 130° |
| 2026-05-05 11:59 | 51.89493 | 6.53612 | 39728 ft | 474 kts | 137° |
| 2026-05-05 11:59 | 51.87056 | 6.57085 | 38927 ft | 473 kts | 145° |
| 2026-05-05 11:59 | 51.84446 | 6.60310 | 38277 ft | 471 kts | 146° |
| 2026-05-05 12:00 | 51.81851 | 6.63538 | 37530 ft | 470 kts | 146° |
| 2026-05-05 12:00 | 51.79403 | 6.66626 | 37019 ft | 464 kts | 146° |
| 2026-05-05 12:00 | 51.76947 | 6.69762 | 36454 ft | 461 kts | 146° |
| 2026-05-05 12:00 | 51.74636 | 6.72748 | 35875 ft | 464 kts | 146° |
| 2026-05-05 12:01 | 51.72340 | 6.75742 | 35209 ft | 463 kts | 146° |
| 2026-05-05 12:01 | 51.70044 | 6.78773 | 34597 ft | 457 kts | 146° |
| 2026-05-05 12:01 | 51.67816 | 6.81754 | 34132 ft | 448 kts | 145° |
| 2026-05-05 12:01 | 51.65459 | 6.84944 | 33529 ft | 446 kts | 145° |
| 2026-05-05 12:02 | 51.63054 | 6.88230 | 32938 ft | 449 kts | 144° |
| 2026-05-05 12:02 | 51.60616 | 6.91589 | 32348 ft | 450 kts | 144° |
| 2026-05-05 12:02 | 51.58152 | 6.95015 | 31718 ft | 453 kts | 143° |
| 2026-05-05 12:02 | 51.55795 | 6.98362 | 31104 ft | 455 kts | 142° |
| 2026-05-05 12:03 | 51.53386 | 7.01813 | 30504 ft | 456 kts | 142° |
| 2026-05-05 12:03 | 51.50990 | 7.05244 | 29888 ft | 455 kts | 142° |
| 2026-05-05 12:03 | 51.48571 | 7.08703 | 29265 ft | 451 kts | 141° |
| 2026-05-05 12:03 | 51.46215 | 7.12069 | 28665 ft | 448 kts | 141° |
| 2026-05-05 12:04 | 51.43864 | 7.15423 | 28058 ft | 443 kts | 141° |
| 2026-05-05 12:04 | 51.41476 | 7.18828 | 27454 ft | 440 kts | 141° |
| 2026-05-05 12:04 | 51.39221 | 7.22037 | 26869 ft | 437 kts | 141° |
| 2026-05-05 12:04 | 51.36950 | 7.25266 | 26295 ft | 433 kts | 141° |
| 2026-05-05 12:05 | 51.34708 | 7.28449 | 25743 ft | 430 kts | 141° |
| 2026-05-05 12:05 | 51.32465 | 7.31630 | 25129 ft | 428 kts | 141° |
| 2026-05-05 12:05 | 51.30274 | 7.34733 | 24590 ft | 424 kts | 141° |
| 2026-05-05 12:05 | 51.28059 | 7.37868 | 24028 ft | 421 kts | 140° |
| 2026-05-05 12:06 | 51.25853 | 7.40984 | 23464 ft | 417 kts | 140° |
| 2026-05-05 12:06 | 51.23651 | 7.44091 | 22892 ft | 416 kts | 140° |
| 2026-05-05 12:06 | 51.21477 | 7.47154 | 22334 ft | 412 kts | 140° |
| 2026-05-05 12:06 | 51.19354 | 7.50143 | 21815 ft | 408 kts | 140° |
| 2026-05-05 12:07 | 51.17223 | 7.53139 | 21241 ft | 404 kts | 140° |
| 2026-05-05 12:07 | 51.15105 | 7.56113 | 20701 ft | 401 kts | 140° |
| 2026-05-05 12:07 | 51.13044 | 7.59003 | 20165 ft | 397 kts | 140° |
| 2026-05-05 12:07 | 51.10958 | 7.61925 | 19641 ft | 395 kts | 140° |
| 2026-05-05 12:08 | 51.08915 | 7.64784 | 19119 ft | 391 kts | 140° |
| 2026-05-05 12:08 | 51.06848 | 7.67671 | 18584 ft | 389 kts | 140° |
| 2026-05-05 12:08 | 51.04803 | 7.70525 | 18088 ft | 385 kts | 140° |
| 2026-05-05 12:08 | 51.02785 | 7.73339 | 17559 ft | 383 kts | 140° |
| 2026-05-05 12:09 | 51.00805 | 7.76095 | 17042 ft | 379 kts | 140° |
| 2026-05-05 12:09 | 50.98797 | 7.78892 | 16571 ft | 379 kts | 140° |
| 2026-05-05 12:09 | 50.97094 | 7.81994 | 16037 ft | 376 kts | 126° |
| 2026-05-05 12:09 | 50.95674 | 7.85497 | 15567 ft | 372 kts | 123° |
| 2026-05-05 12:10 | 50.94324 | 7.88894 | 15064 ft | 364 kts | 123° |
| 2026-05-05 12:10 | 50.92962 | 7.92322 | 14525 ft | 370 kts | 123° |
| 2026-05-05 12:10 | 50.91550 | 7.95857 | 13999 ft | 375 kts | 123° |
| 2026-05-05 12:10 | 50.90120 | 7.99428 | 13428 ft | 372 kts | 123° |
| 2026-05-05 12:11 | 50.88750 | 8.02842 | 12906 ft | 369 kts | 123° |
| 2026-05-05 12:11 | 50.87534 | 8.06433 | 12373 ft | 367 kts | 115° |
| 2026-05-05 12:11 | 50.86508 | 8.10278 | 11840 ft | 362 kts | 114° |
| 2026-05-05 12:11 | 50.85541 | 8.13970 | 11322 ft | 351 kts | 113° |
| 2026-05-05 12:12 | 50.84623 | 8.17482 | 10808 ft | 341 kts | 113° |
| 2026-05-05 12:12 | 50.83711 | 8.20974 | 10416 ft | 328 kts | 114° |
| 2026-05-05 12:12 | 50.82862 | 8.24247 | 10252 ft | 311 kts | 113° |
| 2026-05-05 12:12 | 50.82060 | 8.27346 | 10150 ft | 295 kts | 113° |
| 2026-05-05 12:13 | 50.81294 | 8.30313 | 9800 ft | 290 kts | 114° |
| 2026-05-05 12:13 | 50.80347 | 8.33112 | 9401 ft | 285 kts | 122° |
| 2026-05-05 12:13 | 50.79301 | 8.35763 | 8989 ft | 283 kts | 123° |
| 2026-05-05 12:13 | 50.78270 | 8.38362 | 8533 ft | 282 kts | 123° |
| 2026-05-05 12:14 | 50.77222 | 8.40997 | 8083 ft | 280 kts | 123° |
| 2026-05-05 12:14 | 50.76165 | 8.43655 | 7611 ft | 279 kts | 123° |
| 2026-05-05 12:14 | 50.75095 | 8.46339 | 7156 ft | 278 kts | 123° |
| 2026-05-05 12:14 | 50.74074 | 8.48871 | 6728 ft | 276 kts | 124° |
| 2026-05-05 12:15 | 50.72728 | 8.50995 | 6291 ft | 270 kts | 149° |
| 2026-05-05 12:15 | 50.71098 | 8.52386 | 6240 ft | 252 kts | 153° |
| 2026-05-05 12:15 | 50.69577 | 8.53627 | 6088 ft | 242 kts | 153° |
| 2026-05-05 12:15 | 50.68097 | 8.54831 | 5986 ft | 233 kts | 153° |
| 2026-05-05 12:16 | 50.66618 | 8.56036 | 6008 ft | 237 kts | 153° |
| 2026-05-05 12:16 | 50.65112 | 8.57255 | 6006 ft | 238 kts | 153° |
| 2026-05-05 12:16 | 50.63640 | 8.58449 | 5995 ft | 238 kts | 153° |
| 2026-05-05 12:16 | 50.62135 | 8.59669 | 5958 ft | 237 kts | 154° |
| 2026-05-05 12:17 | 50.60538 | 8.60321 | 5962 ft | 235 kts | 184° |
| 2026-05-05 12:17 | 50.59007 | 8.59436 | 5968 ft | 234 kts | 217° |
| 2026-05-05 12:17 | 50.57754 | 8.57701 | 5972 ft | 235 kts | 223° |
| 2026-05-05 12:17 | 50.56589 | 8.55945 | 5995 ft | 235 kts | 224° |
| 2026-05-05 12:18 | 50.55706 | 8.53873 | 6034 ft | 238 kts | 250° |
| 2026-05-05 12:18 | 50.55165 | 8.51528 | 6010 ft | 237 kts | 239° |
| 2026-05-05 12:18 | 50.54004 | 8.49789 | 6006 ft | 235 kts | 209° |
| 2026-05-05 12:18 | 50.52575 | 8.48407 | 5996 ft | 235 kts | 214° |
| 2026-05-05 12:19 | 50.51443 | 8.46580 | 5994 ft | 237 kts | 242° |
| 2026-05-05 12:19 | 50.51205 | 8.44031 | 5953 ft | 237 kts | 282° |
| 2026-05-05 12:19 | 50.52113 | 8.41788 | 5969 ft | 236 kts | 321° |
| 2026-05-05 12:19 | 50.53557 | 8.40562 | 5990 ft | 218 kts | 335° |
| 2026-05-05 12:20 | 50.54890 | 8.39502 | 6031 ft | 194 kts | 326° |
| 2026-05-05 12:20 | 50.55927 | 8.38229 | 6037 ft | 178 kts | 314° |
| 2026-05-05 12:20 | 50.56776 | 8.36724 | 6024 ft | 176 kts | 305° |
| 2026-05-05 12:20 | 50.57515 | 8.35106 | 5997 ft | 177 kts | 302° |
| 2026-05-05 12:21 | 50.58239 | 8.33465 | 5835 ft | 179 kts | 303° |
| 2026-05-05 12:21 | 50.58989 | 8.31856 | 5556 ft | 179 kts | 305° |
| 2026-05-05 12:21 | 50.59765 | 8.30290 | 5229 ft | 178 kts | 307° |
| 2026-05-05 12:21 | 50.60537 | 8.28776 | 4943 ft | 174 kts | 307° |
| 2026-05-05 12:22 | 50.61300 | 8.27272 | 4714 ft | 168 kts | 307° |
| 2026-05-05 12:22 | 50.62035 | 8.25810 | 4510 ft | 169 kts | 307° |
| 2026-05-05 12:22 | 50.62758 | 8.24363 | 4265 ft | 164 kts | 307° |
| 2026-05-05 12:22 | 50.63433 | 8.23015 | 4066 ft | 145 kts | 307° |
| 2026-05-05 12:23 | 50.64034 | 8.21813 | 3947 ft | 137 kts | 307° |
| 2026-05-05 12:23 | 50.64626 | 8.20621 | 3736 ft | 135 kts | 306° |
| 2026-05-05 12:23 | 50.65198 | 8.19465 | 3557 ft | 135 kts | 308° |
| 2026-05-05 12:23 | 50.65801 | 8.18271 | 3371 ft | 140 kts | 308° |
| 2026-05-05 12:24 | 50.66407 | 8.17073 | 3190 ft | 135 kts | 308° |
| 2026-05-05 12:24 | 50.66975 | 8.15913 | 2965 ft | 133 kts | 307° |
| 2026-05-05 12:24 | 50.67548 | 8.14737 | 2847 ft | 134 kts | 306° |
| 2026-05-05 12:24 | 50.68124 | 8.13525 | 2680 ft | 138 kts | 306° |
| 2026-05-05 12:25 | 50.68702 | 8.12323 | 2483 ft | 133 kts | 308° |
| 2026-05-05 12:25 | 50.69314 | 8.11197 | 2301 ft | 137 kts | 311° |
| 2026-05-05 12:25 | 50.69914 | 8.10019 | 2123 ft | 134 kts | 305° |
| 2026-05-05 12:25 | 50.70474 | 8.08882 | 1949 ft | 126 kts | 308° |
| 2026-05-05 12:26 | 50.70943 | 8.07937 | 1968 ft | 79 kts | 308° |
| 2026-05-05 12:26 | 50.71170 | 8.07482 | 1970 ft | 26 kts | 307° |
| 2026-05-05 12:26 | 50.71224 | 8.07341 | 1967 ft | 4 kts | 267° |
| 2026-05-05 12:26 | 50.71209 | 8.07267 | 1967 ft | 9 kts | 242° |
| 2026-05-05 12:27 | 50.71162 | 8.07202 | 1970 ft | 9 kts | 196° |
| 2026-05-05 12:27 | 50.71101 | 8.07214 | 1973 ft | 8 kts | 151° |
| 2026-05-05 12:27 | 50.71059 | 8.07284 | 1976 ft | 9 kts | 129° |
| 2026-05-05 12:27 | 50.71016 | 8.07367 | 1978 ft | 10 kts | 126° |
| 2026-05-05 12:28 | 50.70969 | 8.07483 | 1978 ft | 14 kts | 121° |
| 2026-05-05 12:28 | 50.70913 | 8.07596 | 1976 ft | 11 kts | 137° |
| 2026-05-05 12:28 | 50.70850 | 8.07703 | 1975 ft | 8 kts | 127° |
| 2026-05-05 12:28 | 50.70784 | 8.07755 | 1973 ft | 10 kts | 171° |
| 2026-05-05 12:29 | 50.70762 | 8.07717 | 1974 ft | 4 kts | 298° |
| 2026-05-05 12:29 | 50.70775 | 8.07711 | 1974 ft | 0 kts | 36° |